KBYI

Details ICAO KBYI
Name BURLEY MUNI
Region United States
Timezone America/Boise (UTC-6.0)
Plans Departing 6
Arriving 4
Stats Elevation 4,150 ft / 1,265 m (AMSL)
Location 42.542608° -113.771545°
Runways 2
Magnetic Variation 12.335° E
Sunrise 2018-05-24 12:06:33 UTC / 2018-05-24 06:06:33 Local
Sunset 2018-05-25 03:00:14 UTC / 2018-05-24 21:00:14 Local
Advertisement - Login to hide

Runways

ID Width Length Bearing (true) Bearing (mag) Surface Threshold Offset Overrun Length
02 80 ft / 24 m 4,093 ft / 1,248 m 37.30° 24.96° Asphalt 620 ft / 189 m 0 ft / 0 m
06 75 ft / 23 m 4,057 ft / 1,237 m 78.79° 66.45° Asphalt 800 ft / 244 m 0 ft / 0 m
20 80 ft / 24 m 4,093 ft / 1,248 m 217.30° 204.96° Asphalt 300 ft / 91 m 0 ft / 0 m
24 75 ft / 23 m 4,057 ft / 1,237 m 258.80° 246.46° Asphalt 0 ft / 0 m 0 ft / 0 m

Map

Weather


0- 5 10 15 20 25 30 35+ Temperature / ° C

Clouds and Precipitation
Forecast for 2018-05-24 18:00 UTC. Updated 5 hours ago

Ground ~20,000 ft ~40,000 ft Winds

METAR

KBYI 242153Z AUTO VRB05KT 10SM CLR 27/08 A3004 RMK AO2 LTG DSNT SE SLP130 T02670083

TAF

TAF AMD KBYI 241950Z 2420/2518 28008KT P6SM -SHRA VCTS SCT060 BKN100CB FM250500 VRB05KT P6SM SCT090

Frequencies

Recorded 135.57 MHz ASOS
Approach 126.70 MHz TWIN FALLS APP/DEP
Unicom 122.90 MHz CTAF
Warning: Do not use this data for real-world aviation or navigation. No guarantee of current accuracy is given.